Time;durP1;ratioP1;P1;durP2;ratioP2;P2;SDS_P1;SDS_P2;PMS_P1;PMS_P2;Temp;Humidity;BMP_temperature;BMP_pressure;BME280_temperature;BME280_humidity;BME280_pressure;Samples;Min_cycle;Max_cycle;Signal;HPM_P1;HPM_P2
2022/06/24 00:00:04;;;;;;;13.10;11.80;;;;;;;;;;758627;181;919249;-71
2022/06/24 00:02:30;;;;;;;17.87;13.33;;;;;;;;;;737852;189;918172;-72
2022/06/24 00:04:56;;;;;;;16.47;13.80;;;;;;;;;;737671;188;918285;-72
2022/06/24 00:07:21;;;;;;;16.70;11.57;;;;;;;;;;732443;188;919002;-73
2022/06/24 00:09:47;;;;;;;16.83;14.00;;;;;;;;;;742421;189;919284;-72
2022/06/24 00:12:13;;;;;;;18.73;13.87;;;;;;;;;;732369;188;919059;-73
2022/06/24 00:14:39;;;;;;;19.93;13.57;;;;;;;;;;763104;181;918636;-71
2022/06/24 00:17:05;;;;;;;22.10;14.80;;;;;;;;;;759108;184;919402;-71
2022/06/24 00:19:31;;;;;;;14.47;12.97;;;;;;;;;;747809;184;921345;-72
2022/06/24 00:21:56;;;;;;;15.90;12.63;;;;;;;;;;762188;181;918431;-72
2022/06/24 00:24:22;;;;;;;15.33;13.70;;;;;;;;;;763813;180;918519;-71
2022/06/24 00:26:48;;;;;;;17.30;15.07;;;;;;;;;;768431;181;943139;-70
2022/06/24 00:29:15;;;;;;;18.40;12.50;;;;;;;;;;771517;180;925512;-72
2022/06/24 00:31:41;;;;;;;14.50;10.87;;;;;;;;;;760927;181;1020813;-71
2022/06/24 00:34:07;;;;;;;16.70;13.13;;;;;;;;;;764845;181;920941;-71
2022/06/24 00:36:32;;;;;;;14.73;11.70;;;;;;;;;;761395;181;915138;-71
2022/06/24 00:38:58;;;;;;;16.53;14.67;;;;;;;;;;764499;180;916516;-71
2022/06/24 00:41:25;;;;;;;17.67;13.03;;;;;;;;;;765796;181;933450;-70
2022/06/24 00:43:50;;;;;;;15.43;13.90;;;;;;;;;;753758;181;916649;-71
2022/06/24 00:46:18;;;;;;;17.60;13.77;;;;;;;;;;772929;180;916344;-71
2022/06/24 00:48:46;;;;;;;17.57;14.40;;;;;;;;;;764739;180;915477;-70
2022/06/24 00:51:12;;;;;;;15.87;14.17;;;;;;;;;;763736;181;919042;-71
2022/06/24 00:53:42;;;;;;;17.60;14.90;;;;;;;;;;758510;181;918789;-72
2022/06/24 00:56:07;;;;;;;16.70;15.00;;;;;;;;;;762257;182;917887;-71
2022/06/24 00:58:33;;;;;;;17.50;14.23;;;;;;;;;;771977;181;919114;-71
2022/06/24 01:00:59;;;;;;;18.20;15.07;;;;;;;;;;767819;181;919198;-71
2022/06/24 01:03:25;;;;;;;17.53;14.43;;;;;;;;;;756638;181;918538;-71
2022/06/24 01:05:51;;;;;;;17.67;15.87;;;;;;;;;;755897;181;919036;-71
2022/06/24 01:08:17;;;;;;;17.90;16.00;;;;;;;;;;776746;180;919169;-71
2022/06/24 01:10:43;;;;;;;18.87;15.82;;;;;;;;;;756676;181;919538;-70
2022/06/24 01:13:09;;;;;;;19.13;15.20;;;;;;;;;;755774;180;918875;-71
2022/06/24 01:15:35;;;;;;;17.83;15.10;;;;;;;;;;743867;188;917850;-71
2022/06/24 01:18:01;;;;;;;17.60;14.53;;;;;;;;;;739639;188;919085;-70
2022/06/24 01:20:27;;;;;;;19.63;16.40;;;;;;;;;;736723;188;919434;-71
2022/06/24 01:22:53;;;;;;;20.25;15.38;;;;;;;;;;738585;189;918976;-70
2022/06/24 01:25:19;;;;;;;21.83;16.00;;;;;;;;;;744584;188;918893;-70
2022/06/24 01:27:44;;;;;;;17.30;15.00;;;;;;;;;;761558;181;918821;-70
2022/06/24 01:30:11;;;;;;;17.73;16.03;;;;;;;;;;761784;181;918706;-69
2022/06/24 01:32:36;;;;;;;16.90;14.00;;;;;;;;;;748786;186;919277;-70
2022/06/24 01:35:02;;;;;;;20.73;14.10;;;;;;;;;;743177;188;920221;-71
2022/06/24 01:37:28;;;;;;;20.23;15.68;;;;;;;;;;768128;181;919202;-71
2022/06/24 01:39:54;;;;;;;16.90;15.10;;;;;;;;;;770540;181;918971;-70
2022/06/24 01:42:20;;;;;;;19.60;14.80;;;;;;;;;;764830;181;919266;-70
2022/06/24 01:44:46;;;;;;;17.80;15.93;;;;;;;;;;771143;181;919785;-70
2022/06/24 01:47:12;;;;;;;17.90;14.10;;;;;;;;;;772473;181;920151;-70
2022/06/24 01:49:37;;;;;;;17.90;14.63;;;;;;;;;;748147;185;921181;-70
2022/06/24 01:52:04;;;;;;;17.77;14.10;;;;;;;;;;745968;188;918813;-70
2022/06/24 01:54:30;;;;;;;18.70;14.40;;;;;;;;;;772876;180;915655;-68
2022/06/24 01:56:55;;;;;;;16.33;13.90;;;;;;;;;;766013;180;914768;-69
2022/06/24 01:59:21;;;;;;;16.70;13.82;;;;;;;;;;762946;181;915875;-69
2022/06/24 02:01:47;;;;;;;20.27;15.87;;;;;;;;;;762569;180;914967;-69
2022/06/24 02:04:13;;;;;;;15.23;13.60;;;;;;;;;;767002;180;919544;-69
2022/06/24 02:06:39;;;;;;;21.90;15.30;;;;;;;;;;763197;181;918456;-69
2022/06/24 02:09:05;;;;;;;16.37;14.60;;;;;;;;;;762440;182;918784;-69
2022/06/24 02:14:02;;;;;;;16.87;15.17;;;;;;;;;;770023;180;918447;-69
2022/06/24 02:16:28;;;;;;;17.33;13.25;;;;;;;;;;759583;181;918705;-68
2022/06/24 02:18:54;;;;;;;16.70;12.83;;;;;;;;;;761519;181;918131;-68
2022/06/24 02:21:22;;;;;;;15.50;12.73;;;;;;;;;;768776;181;916603;-68
2022/06/24 02:23:46;;;;;;;14.20;12.70;;;;;;;;;;762579;180;917879;-68
2022/06/24 02:26:12;;;;;;;15.73;14.13;;;;;;;;;;758107;181;919217;-67
2022/06/24 02:28:38;;;;;;;18.23;15.47;;;;;;;;;;767797;181;918667;-67
2022/06/24 02:31:04;;;;;;;16.57;14.87;;;;;;;;;;772605;181;920043;-68
2022/06/24 02:33:30;;;;;;;20.27;14.60;;;;;;;;;;766800;181;918000;-67
2022/06/24 02:35:56;;;;;;;19.27;13.73;;;;;;;;;;767577;181;919908;-67
2022/06/24 02:38:22;;;;;;;19.13;13.90;;;;;;;;;;764128;181;920062;-68
2022/06/24 02:40:48;;;;;;;22.90;15.60;;;;;;;;;;766528;181;919020;-68
2022/06/24 02:43:18;;;;;;;16.25;13.52;;;;;;;;;;758061;180;918400;-68
2022/06/24 02:45:44;;;;;;;21.27;13.13;;;;;;;;;;733295;190;916711;-68
2022/06/24 02:48:09;;;;;;;15.80;14.10;;;;;;;;;;732811;189;920725;-68
2022/06/24 02:50:37;;;;;;;20.33;13.87;;;;;;;;;;734133;189;919055;-68
2022/06/24 02:53:03;;;;;;;17.07;13.67;;;;;;;;;;737723;188;916090;-68
2022/06/24 02:55:29;;;;;;;22.50;13.87;;;;;;;;;;733476;189;915588;-70
2022/06/24 02:57:54;;;;;;;14.33;12.53;;;;;;;;;;733376;188;915621;-70
2022/06/24 03:00:21;;;;;;;17.87;14.37;;;;;;;;;;737101;186;925696;-70
2022/06/24 03:02:47;;;;;;;17.90;13.50;;;;;;;;;;777148;180;918551;-69
2022/06/24 03:05:13;;;;;;;20.33;15.60;;;;;;;;;;762367;181;918920;-70
2022/06/24 03:07:39;;;;;;;26.87;15.33;;;;;;;;;;765814;181;918775;-71
2022/06/24 03:10:05;;;;;;;18.50;13.90;;;;;;;;;;773126;181;919297;-71
2022/06/24 03:12:31;;;;;;;16.50;12.70;;;;;;;;;;764281;180;919614;-71
2022/06/24 03:14:57;;;;;;;16.63;12.67;;;;;;;;;;770429;180;921745;-70
2022/06/24 03:17:23;;;;;;;15.60;13.93;;;;;;;;;;774371;180;918211;-71
2022/06/24 03:19:50;;;;;;;17.33;13.50;;;;;;;;;;761332;181;919175;-71
2022/06/24 03:22:16;;;;;;;19.30;14.00;;;;;;;;;;765860;181;919500;-71
2022/06/24 03:24:41;;;;;;;22.63;16.00;;;;;;;;;;764590;181;1020768;-69
2022/06/24 03:27:07;;;;;;;19.60;16.37;;;;;;;;;;765032;181;918158;-72
2022/06/24 03:29:33;;;;;;;19.83;15.80;;;;;;;;;;760368;180;1204711;-69
2022/06/24 03:31:59;;;;;;;16.70;15.07;;;;;;;;;;771470;180;934248;-70
2022/06/24 03:34:25;;;;;;;19.03;14.60;;;;;;;;;;767631;182;918165;-69
2022/06/24 03:36:51;;;;;;;15.57;13.47;;;;;;;;;;760841;181;919252;-69
2022/06/24 03:39:17;;;;;;;31.33;14.83;;;;;;;;;;770687;181;919317;-69
2022/06/24 03:41:42;;;;;;;17.63;14.57;;;;;;;;;;778325;180;919469;-69
2022/06/24 03:44:08;;;;;;;20.60;15.23;;;;;;;;;;759511;181;919451;-69
2022/06/24 03:46:34;;;;;;;16.53;14.17;;;;;;;;;;732526;188;918453;-70
2022/06/24 03:49:00;;;;;;;16.40;14.70;;;;;;;;;;762139;182;919298;-69
2022/06/24 03:51:26;;;;;;;15.10;13.40;;;;;;;;;;771310;181;917935;-72
2022/06/24 03:53:52;;;;;;;19.03;15.40;;;;;;;;;;767759;181;918917;-68
2022/06/24 03:56:18;;;;;;;20.40;14.00;;;;;;;;;;761143;181;919073;-69
2022/06/24 03:58:44;;;;;;;17.73;13.77;;;;;;;;;;739411;188;922272;-69
2022/06/24 04:01:10;;;;;;;15.30;13.07;;;;;;;;;;764588;181;919406;-69
2022/06/24 04:03:36;;;;;;;16.33;12.60;;;;;;;;;;761818;181;918930;-69
2022/06/24 04:06:02;;;;;;;20.07;13.73;;;;;;;;;;773059;181;918170;-69
2022/06/24 04:08:28;;;;;;;13.37;11.87;;;;;;;;;;766266;181;926164;-68
2022/06/24 04:10:54;;;;;;;13.68;12.25;;;;;;;;;;769549;181;918760;-68
2022/06/24 04:13:20;;;;;;;13.60;11.50;;;;;;;;;;764606;180;951188;-68
2022/06/24 04:15:46;;;;;;;12.17;10.70;;;;;;;;;;766448;180;918358;-68
2022/06/24 04:18:12;;;;;;;12.13;10.77;;;;;;;;;;766739;180;918483;-68
2022/06/24 04:20:38;;;;;;;16.43;10.27;;;;;;;;;;768419;180;918631;-67
2022/06/24 04:23:03;;;;;;;15.50;11.20;;;;;;;;;;763044;180;918708;-68
2022/06/24 04:25:29;;;;;;;22.37;10.83;;;;;;;;;;764486;181;919156;-68
2022/06/24 04:27:55;;;;;;;13.10;10.23;;;;;;;;;;743747;185;944218;-69
2022/06/24 04:30:21;;;;;;;15.10;10.07;;;;;;;;;;772828;181;712814;-68
2022/06/24 04:32:47;;;;;;;13.07;10.50;;;;;;;;;;772280;180;687095;-69
2022/06/24 04:35:13;;;;;;;14.85;10.70;;;;;;;;;;767349;180;919095;-70
2022/06/24 04:37:40;;;;;;;14.38;10.98;;;;;;;;;;768091;181;918283;-70
2022/06/24 04:40:06;;;;;;;13.10;10.00;;;;;;;;;;768382;180;922915;-69
2022/06/24 04:42:32;;;;;;;12.83;10.00;;;;;;;;;;765443;180;920299;-70
2022/06/24 04:44:58;;;;;;;15.60;10.50;;;;;;;;;;766425;180;918331;-71
2022/06/24 04:47:24;;;;;;;14.00;10.47;;;;;;;;;;767723;181;920740;-70
2022/06/24 04:49:50;;;;;;;16.17;10.97;;;;;;;;;;766553;181;917878;-70
2022/06/24 04:52:16;;;;;;;13.30;10.63;;;;;;;;;;735330;188;919587;-69
2022/06/24 04:54:41;;;;;;;11.83;9.73;;;;;;;;;;743189;189;624778;-72
2022/06/24 04:57:07;;;;;;;12.27;10.97;;;;;;;;;;738156;188;817396;-69
2022/06/24 04:59:33;;;;;;;34.77;25.33;;;;;;;;;;734856;188;1022598;-71
2022/06/24 05:01:59;;;;;;;18.30;16.40;;;;;;;;;;728496;188;1021690;-71
2022/06/24 05:04:25;;;;;;;15.90;10.60;;;;;;;;;;758950;180;1225348;-71
2022/06/24 05:06:51;;;;;;;12.63;11.10;;;;;;;;;;768485;181;918437;-68
2022/06/24 05:09:17;;;;;;;14.02;10.85;;;;;;;;;;761017;180;944172;-69
2022/06/24 05:11:42;;;;;;;11.70;8.70;;;;;;;;;;766256;180;918540;-69
2022/06/24 05:14:08;;;;;;;12.43;8.60;;;;;;;;;;763492;180;921579;-73
2022/06/24 05:16:34;;;;;;;12.32;10.18;;;;;;;;;;764009;180;919340;-69
2022/06/24 05:19:00;;;;;;;11.13;8.77;;;;;;;;;;769307;181;918026;-70
2022/06/24 05:21:26;;;;;;;17.20;9.47;;;;;;;;;;764403;180;919136;-69
2022/06/24 05:23:52;;;;;;;14.83;9.37;;;;;;;;;;764044;180;917826;-69
2022/06/24 05:26:18;;;;;;;32.20;23.73;;;;;;;;;;775734;180;917054;-67
2022/06/24 05:28:44;;;;;;;10.60;9.47;;;;;;;;;;751478;183;919294;-68
2022/06/24 05:31:09;;;;;;;10.60;7.60;;;;;;;;;;764678;180;906921;-72
2022/06/24 05:33:35;;;;;;;8.63;7.57;;;;;;;;;;767372;180;919200;-68
2022/06/24 05:36:01;;;;;;;9.87;8.07;;;;;;;;;;766932;181;918393;-75
2022/06/24 05:38:27;;;;;;;10.23;9.23;;;;;;;;;;765672;181;918834;-70
2022/06/24 05:40:53;;;;;;;9.93;7.60;;;;;;;;;;764582;181;918397;-68
2022/06/24 05:43:19;;;;;;;7.57;6.77;;;;;;;;;;741579;188;916554;-68
2022/06/24 05:45:45;;;;;;;8.67;7.53;;;;;;;;;;766294;180;919840;-69
2022/06/24 05:48:10;;;;;;;13.83;9.33;;;;;;;;;;769133;181;918919;-68
2022/06/24 05:50:37;;;;;;;13.00;9.30;;;;;;;;;;750494;186;918971;-72
2022/06/24 05:55:34;;;;;;;13.63;8.10;;;;;;;;;;757856;181;917821;-72
2022/06/24 05:58:00;;;;;;;16.80;7.47;;;;;;;;;;728927;190;918493;-72
2022/06/24 06:00:26;;;;;;;12.03;8.30;;;;;;;;;;765746;183;919265;-71
2022/06/24 06:02:52;;;;;;;11.43;7.53;;;;;;;;;;760679;181;917675;-70
2022/06/24 06:05:18;;;;;;;9.90;6.60;;;;;;;;;;758021;183;921648;-71
2022/06/24 06:07:44;;;;;;;12.10;6.80;;;;;;;;;;770573;180;918644;-75
2022/06/24 06:10:10;;;;;;;7.23;5.87;;;;;;;;;;774134;180;919479;-70
2022/06/24 06:12:35;;;;;;;10.20;6.63;;;;;;;;;;768317;181;919430;-70
2022/06/24 06:15:01;;;;;;;8.67;6.30;;;;;;;;;;765717;181;619194;-70
2022/06/24 06:17:27;;;;;;;10.27;6.10;;;;;;;;;;772060;180;616338;-74
2022/06/24 06:19:53;;;;;;;7.40;6.70;;;;;;;;;;769497;180;637196;-70
2022/06/24 06:22:19;;;;;;;7.37;5.37;;;;;;;;;;759828;182;917967;-71
2022/06/24 06:24:45;;;;;;;12.30;8.10;;;;;;;;;;765924;183;620238;-73
2022/06/24 06:27:12;;;;;;;10.23;6.13;;;;;;;;;;758734;181;1030609;-70
2022/06/24 06:29:37;;;;;;;8.37;5.90;;;;;;;;;;765667;181;915063;-71
2022/06/24 06:32:03;;;;;;;7.77;5.50;;;;;;;;;;768480;181;918542;-72
2022/06/24 06:34:28;;;;;;;7.10;5.50;;;;;;;;;;759601;182;918994;-76
2022/06/24 06:36:54;;;;;;;9.23;6.27;;;;;;;;;;761035;180;920611;-71
2022/06/24 06:39:21;;;;;;;12.65;7.78;;;;;;;;;;735832;187;930313;-71
2022/06/24 06:41:47;;;;;;;7.53;5.30;;;;;;;;;;730694;188;918417;-71
2022/06/24 06:44:13;;;;;;;5.67;4.63;;;;;;;;;;741517;186;920971;-72
2022/06/24 06:46:39;;;;;;;6.20;4.80;;;;;;;;;;731841;188;920098;-71
2022/06/24 06:49:05;;;;;;;5.80;4.83;;;;;;;;;;774452;181;918760;-70
2022/06/24 06:51:30;;;;;;;14.77;5.23;;;;;;;;;;768890;181;919019;-75
2022/06/24 06:53:56;;;;;;;9.20;5.17;;;;;;;;;;769624;180;915412;-71
2022/06/24 06:56:22;;;;;;;7.40;5.10;;;;;;;;;;767861;181;915887;-70
2022/06/24 06:58:48;;;;;;;6.23;4.70;;;;;;;;;;761798;183;915489;-70
2022/06/24 07:01:14;;;;;;;9.10;4.87;;;;;;;;;;761695;181;924649;-73
2022/06/24 07:03:40;;;;;;;7.47;4.67;;;;;;;;;;767313;180;916311;-74
2022/06/24 07:06:06;;;;;;;8.17;4.90;;;;;;;;;;769153;180;919309;-71
2022/06/24 07:08:32;;;;;;;7.03;4.70;;;;;;;;;;774064;180;919133;-70
2022/06/24 07:10:58;;;;;;;8.73;4.43;;;;;;;;;;773991;180;918320;-71
2022/06/24 07:13:24;;;;;;;4.57;3.33;;;;;;;;;;767490;181;914225;-72
2022/06/24 07:15:50;;;;;;;4.27;3.67;;;;;;;;;;761330;183;919011;-70
2022/06/24 07:18:16;;;;;;;5.22;3.60;;;;;;;;;;762621;182;923066;-70
2022/06/24 07:20:42;;;;;;;4.90;3.77;;;;;;;;;;766311;181;919251;-71
2022/06/24 07:23:08;;;;;;;5.63;4.20;;;;;;;;;;771751;180;913265;-71
2022/06/24 07:25:34;;;;;;;7.90;3.87;;;;;;;;;;773204;181;920271;-71
2022/06/24 07:28:00;;;;;;;6.00;3.57;;;;;;;;;;762832;181;917792;-72
2022/06/24 07:30:26;;;;;;;7.70;3.87;;;;;;;;;;762738;180;922909;-71
2022/06/24 07:32:52;;;;;;;5.53;3.97;;;;;;;;;;765267;181;922719;-71
2022/06/24 07:35:18;;;;;;;4.67;3.80;;;;;;;;;;762448;180;918966;-72
2022/06/24 07:37:43;;;;;;;4.93;3.33;;;;;;;;;;772384;181;921720;-72
2022/06/24 07:40:10;;;;;;;6.63;3.07;;;;;;;;;;760826;181;922410;-72
2022/06/24 07:42:37;;;;;;;4.93;3.43;;;;;;;;;;765820;181;916833;-72
2022/06/24 07:45:01;;;;;;;4.47;3.47;;;;;;;;;;768239;182;914937;-72
2022/06/24 07:47:27;;;;;;;5.50;3.50;;;;;;;;;;769145;180;916233;-72
2022/06/24 07:49:53;;;;;;;7.97;3.47;;;;;;;;;;774334;180;915348;-74
2022/06/24 07:52:19;;;;;;;4.67;3.57;;;;;;;;;;774411;181;914994;-73
2022/06/24 07:54:45;;;;;;;7.70;3.10;;;;;;;;;;772488;180;914464;-75
2022/06/24 07:57:11;;;;;;;8.83;3.10;;;;;;;;;;762519;181;915611;-68
2022/06/24 07:59:36;;;;;;;9.00;4.90;;;;;;;;;;770927;180;918714;-70
2022/06/24 08:02:03;;;;;;;9.47;2.67;;;;;;;;;;766093;181;913190;-71
2022/06/24 08:04:29;;;;;;;5.30;3.27;;;;;;;;;;759129;181;917665;-71
2022/06/24 08:06:55;;;;;;;7.00;2.53;;;;;;;;;;759876;181;915431;-72
2022/06/24 08:09:21;;;;;;;5.40;3.13;;;;;;;;;;766763;181;914020;-75
2022/06/24 08:11:46;;;;;;;4.90;2.50;;;;;;;;;;765182;181;916342;-75
2022/06/24 08:14:13;;;;;;;3.33;2.40;;;;;;;;;;732936;187;913706;-78
2022/06/24 08:16:38;;;;;;;3.67;2.37;;;;;;;;;;762911;181;920263;-76
2022/06/24 08:19:04;;;;;;;4.53;2.50;;;;;;;;;;757347;184;936610;-76
2022/06/24 08:21:30;;;;;;;6.97;3.00;;;;;;;;;;757036;184;911569;-73
2022/06/24 08:23:56;;;;;;;3.40;2.80;;;;;;;;;;755756;184;914862;-73
2022/06/24 08:26:21;;;;;;;5.77;2.33;;;;;;;;;;760067;184;914893;-73
2022/06/24 08:28:47;;;;;;;6.30;3.13;;;;;;;;;;768053;181;910987;-75
2022/06/24 08:31:13;;;;;;;5.70;3.58;;;;;;;;;;744934;186;919779;-73
2022/06/24 08:33:39;;;;;;;3.63;2.37;;;;;;;;;;748818;188;919365;-75
2022/06/24 08:36:05;;;;;;;4.13;2.40;;;;;;;;;;768526;180;1226133;-71
2022/06/24 08:38:31;;;;;;;8.20;2.90;;;;;;;;;;771339;180;920262;-71
2022/06/24 08:40:57;;;;;;;4.00;2.40;;;;;;;;;;778907;180;919078;-74
2022/06/24 08:43:23;;;;;;;7.93;2.73;;;;;;;;;;765889;180;919674;-73
2022/06/24 08:45:48;;;;;;;3.37;2.60;;;;;;;;;;760195;183;914077;-76
2022/06/24 08:48:14;;;;;;;4.07;2.80;;;;;;;;;;764634;184;629842;-73
2022/06/24 08:50:40;;;;;;;10.83;2.90;;;;;;;;;;743124;189;620547;-71
2022/06/24 08:53:06;;;;;;;7.20;2.70;;;;;;;;;;762673;180;921215;-70
2022/06/24 08:55:36;;;;;;;4.97;2.40;;;;;;;;;;766054;181;916012;-70
2022/06/24 08:58:08;;;;;;;6.93;3.22;;;;;;;;;;773969;181;915068;-71
2022/06/24 09:00:34;;;;;;;7.37;3.83;;;;;;;;;;777198;180;915488;-71
2022/06/24 09:02:59;;;;;;;4.87;2.70;;;;;;;;;;776115;179;914646;-72
2022/06/24 09:05:25;;;;;;;5.70;3.13;;;;;;;;;;771081;181;916370;-71
2022/06/24 09:07:51;;;;;;;3.50;2.90;;;;;;;;;;778280;177;923042;-71
2022/06/24 09:10:17;;;;;;;5.63;3.00;;;;;;;;;;760343;183;915283;-71
2022/06/24 09:12:43;;;;;;;6.17;2.67;;;;;;;;;;760529;181;915047;-71
2022/06/24 09:15:09;;;;;;;3.40;2.57;;;;;;;;;;763626;183;919173;-72
2022/06/24 09:17:35;;;;;;;4.63;2.90;;;;;;;;;;763524;180;919429;-72
2022/06/24 09:20:08;;;;;;;4.20;2.60;;;;;;;;;;759504;183;920418;-71
2022/06/24 09:22:34;;;;;;;5.37;3.53;;;;;;;;;;759797;181;919105;-75
2022/06/24 09:25:01;;;;;;;3.43;2.93;;;;;;;;;;762036;184;919079;-71
2022/06/24 09:27:25;;;;;;;5.60;2.57;;;;;;;;;;764868;181;920648;-71
2022/06/24 09:29:51;;;;;;;4.80;2.97;;;;;;;;;;770069;181;918773;-73
2022/06/24 09:32:17;;;;;;;7.57;3.10;;;;;;;;;;749225;186;919215;-74
2022/06/24 09:34:49;;;;;;;4.30;2.73;;;;;;;;;;740887;190;919578;-75
2022/06/24 09:37:15;;;;;;;4.50;2.87;;;;;;;;;;741121;188;918241;-74
2022/06/24 09:39:41;;;;;;;5.10;2.50;;;;;;;;;;741651;188;919085;-72
2022/06/24 09:42:06;;;;;;;4.97;2.50;;;;;;;;;;744195;188;917775;-77
2022/06/24 09:44:38;;;;;;;4.30;2.87;;;;;;;;;;762344;181;919019;-72
2022/06/24 09:47:04;;;;;;;3.47;2.87;;;;;;;;;;767552;180;918379;-76
2022/06/24 09:49:31;;;;;;;5.07;2.57;;;;;;;;;;770410;181;918992;-77
2022/06/24 09:51:57;;;;;;;7.10;3.30;;;;;;;;;;765329;180;918964;-78
2022/06/24 09:54:23;;;;;;;6.00;2.70;;;;;;;;;;764162;181;919210;-77
2022/06/24 09:56:49;;;;;;;4.10;2.57;;;;;;;;;;767666;181;925661;-75
2022/06/24 10:01:46;;;;;;;3.50;2.73;;;;;;;;;;761017;181;1089243;-74
2022/06/24 10:04:14;;;;;;;5.40;3.40;;;;;;;;;;767256;181;919226;-72
2022/06/24 10:06:40;;;;;;;5.53;3.13;;;;;;;;;;769740;181;881512;-74
2022/06/24 10:09:05;;;;;;;5.40;2.80;;;;;;;;;;753270;181;917563;-75
2022/06/24 10:11:33;;;;;;;9.60;3.20;;;;;;;;;;769553;180;919528;-76
2022/06/24 10:13:57;;;;;;;3.97;3.07;;;;;;;;;;767188;180;918204;-75
2022/06/24 10:16:23;;;;;;;4.40;2.77;;;;;;;;;;766706;181;919576;-73
2022/06/24 10:18:49;;;;;;;4.33;3.33;;;;;;;;;;736221;187;930335;-74
2022/06/24 10:21:15;;;;;;;5.57;3.07;;;;;;;;;;743784;186;923898;-74
2022/06/24 10:23:41;;;;;;;4.57;2.97;;;;;;;;;;748096;186;923850;-74
2022/06/24 10:26:11;;;;;;;5.75;3.47;;;;;;;;;;746471;187;916377;-72
2022/06/24 10:28:42;;;;;;;5.20;3.17;;;;;;;;;;743786;187;817723;-77
2022/06/24 10:31:08;;;;;;;4.53;3.10;;;;;;;;;;746346;187;915722;-77
2022/06/24 10:33:34;;;;;;;9.43;2.93;;;;;;;;;;750549;186;667358;-75
2022/06/24 10:36:02;;;;;;;5.00;3.10;;;;;;;;;;749790;186;813102;-77
2022/06/24 10:38:34;;;;;;;4.20;2.80;;;;;;;;;;748793;187;916152;-74
2022/06/24 10:41:00;;;;;;;3.90;2.77;;;;;;;;;;749026;186;916600;-70
2022/06/24 10:43:31;;;;;;;4.67;3.07;;;;;;;;;;748688;187;918233;-74
2022/06/24 10:46:17;;;;;;;4.43;2.70;;;;;;;;;;741580;187;917927;-76
2022/06/24 10:48:59;;;;;;;3.90;3.07;;;;;;;;;;741349;188;919194;-78
2022/06/24 10:51:24;;;;;;;3.50;2.60;;;;;;;;;;742728;188;919046;-79
2022/06/24 10:53:56;;;;;;;6.40;3.40;;;;;;;;;;746982;186;798013;-77
2022/06/24 10:56:28;;;;;;;4.07;2.60;;;;;;;;;;772693;181;632138;-76
2022/06/24 10:58:54;;;;;;;4.50;2.53;;;;;;;;;;770219;181;627691;-75
2022/06/24 11:01:19;;;;;;;4.27;2.67;;;;;;;;;;769666;180;629728;-77
2022/06/24 11:03:45;;;;;;;4.73;2.80;;;;;;;;;;770339;181;643844;-74
2022/06/24 11:06:12;;;;;;;3.70;2.80;;;;;;;;;;769503;181;632023;-74
2022/06/24 11:08:38;;;;;;;5.00;2.80;;;;;;;;;;774396;180;627055;-78
2022/06/24 11:11:05;;;;;;;3.57;2.50;;;;;;;;;;771709;181;622559;-77
2022/06/24 11:13:29;;;;;;;4.60;2.80;;;;;;;;;;766635;181;650953;-76
2022/06/24 11:15:55;;;;;;;3.20;2.43;;;;;;;;;;771219;180;656569;-75
2022/06/24 11:18:21;;;;;;;5.87;2.70;;;;;;;;;;766284;181;629222;-75
2022/06/24 11:20:49;;;;;;;3.23;2.27;;;;;;;;;;766635;181;920477;-74
2022/06/24 11:23:15;;;;;;;5.50;2.53;;;;;;;;;;770369;179;785463;-73
2022/06/24 11:25:40;;;;;;;7.30;2.60;;;;;;;;;;780265;180;627412;-75
2022/06/24 11:28:17;;;;;;;3.77;2.40;;;;;;;;;;765654;181;627597;-73
2022/06/24 11:30:43;;;;;;;4.80;2.77;;;;;;;;;;772283;180;635233;-74
2022/06/24 11:33:09;;;;;;;15.23;6.30;;;;;;;;;;771204;181;636156;-77
2022/06/24 11:35:35;;;;;;;13.17;4.90;;;;;;;;;;739989;188;816122;-75
2022/06/24 11:38:01;;;;;;;15.80;6.33;;;;;;;;;;734643;188;631350;-73
2022/06/24 11:40:26;;;;;;;7.37;4.07;;;;;;;;;;738149;188;630382;-77
2022/06/24 11:42:54;;;;;;;6.90;4.10;;;;;;;;;;758810;184;617000;-76
2022/06/24 11:45:25;;;;;;;11.20;3.20;;;;;;;;;;764974;180;732566;-74
2022/06/24 11:47:50;;;;;;;6.43;3.33;;;;;;;;;;768367;181;623531;-75
2022/06/24 11:50:18;;;;;;;7.70;2.80;;;;;;;;;;775267;180;630681;-74
2022/06/24 11:52:44;;;;;;;4.07;2.73;;;;;;;;;;765886;181;632883;-76
2022/06/24 11:55:15;;;;;;;5.30;2.80;;;;;;;;;;765031;180;623843;-77
2022/06/24 11:57:41;;;;;;;4.97;2.90;;;;;;;;;;733884;188;663364;-78
2022/06/24 12:00:09;;;;;;;5.53;3.50;;;;;;;;;;770822;181;624979;-76
2022/06/24 12:02:35;;;;;;;4.67;2.80;;;;;;;;;;733860;188;623535;-77
2022/06/24 12:05:01;;;;;;;4.27;2.60;;;;;;;;;;733926;189;674890;-74
2022/06/24 12:07:27;;;;;;;3.80;2.70;;;;;;;;;;743716;188;628542;-73
2022/06/24 12:09:52;;;;;;;4.50;3.10;;;;;;;;;;730065;189;628384;-74
2022/06/24 12:12:18;;;;;;;3.60;2.67;;;;;;;;;;743892;188;615218;-76
2022/06/24 12:14:44;;;;;;;5.40;2.97;;;;;;;;;;769349;181;639599;-77
2022/06/24 12:17:10;;;;;;;3.20;2.20;;;;;;;;;;768810;180;640947;-76
2022/06/24 12:19:37;;;;;;;3.00;2.23;;;;;;;;;;771371;181;634918;-74
2022/06/24 12:22:04;;;;;;;3.83;2.80;;;;;;;;;;770691;180;816176;-77
2022/06/24 12:24:30;;;;;;;4.57;2.83;;;;;;;;;;740620;188;624269;-75
2022/06/24 12:26:55;;;;;;;4.60;2.87;;;;;;;;;;734953;188;626867;-73
2022/06/24 12:29:23;;;;;;;4.20;3.20;;;;;;;;;;765857;180;638936;-75
2022/06/24 12:31:49;;;;;;;5.33;2.93;;;;;;;;;;769199;180;619271;-76
2022/06/24 12:34:15;;;;;;;6.07;2.30;;;;;;;;;;759200;184;616539;-75
2022/06/24 12:36:42;;;;;;;6.90;3.03;;;;;;;;;;770264;180;617702;-76
2022/06/24 12:39:08;;;;;;;4.43;2.43;;;;;;;;;;765895;180;642794;-74
2022/06/24 12:41:40;;;;;;;5.23;2.90;;;;;;;;;;774684;181;626325;-70
2022/06/24 12:44:07;;;;;;;6.20;3.00;;;;;;;;;;763070;181;925018;-75
2022/06/24 12:51:46;;;;;;;5.90;3.23;;;;;;;;;;747357;186;919251;-75
2022/06/24 12:54:13;;;;;;;7.77;2.93;;;;;;;;;;751479;187;632102;-77
2022/06/24 12:56:38;;;;;;;3.83;2.27;;;;;;;;;;750921;187;631586;-72
2022/06/24 12:59:04;;;;;;;6.77;2.97;;;;;;;;;;746902;187;643850;-77
2022/06/24 13:01:31;;;;;;;6.60;3.70;;;;;;;;;;750633;188;622633;-76
2022/06/24 13:03:56;;;;;;;3.50;2.90;;;;;;;;;;747207;187;624706;-76
2022/06/24 13:06:22;;;;;;;7.97;2.80;;;;;;;;;;746447;187;633933;-71
2022/06/24 13:08:48;;;;;;;3.63;2.57;;;;;;;;;;746589;187;630025;-76
2022/06/24 13:11:14;;;;;;;3.80;2.37;;;;;;;;;;754143;186;617156;-71
2022/06/24 13:13:40;;;;;;;5.30;2.57;;;;;;;;;;745838;187;614261;-77
2022/06/24 13:16:07;;;;;;;9.20;3.10;;;;;;;;;;747416;187;648577;-73
2022/06/24 13:18:33;;;;;;;3.10;2.30;;;;;;;;;;749607;187;918735;-80
2022/06/24 13:20:59;;;;;;;6.17;3.10;;;;;;;;;;745596;187;700910;-79
2022/06/24 13:23:25;;;;;;;7.37;3.07;;;;;;;;;;748700;187;629952;-73
2022/06/24 13:25:51;;;;;;;3.10;2.47;;;;;;;;;;751431;187;893905;-76
2022/06/24 13:28:16;;;;;;;4.30;3.03;;;;;;;;;;768530;181;826744;-72
2022/06/24 13:30:42;;;;;;;3.40;2.60;;;;;;;;;;769408;181;917983;-78
2022/06/24 13:33:08;;;;;;;16.30;2.83;;;;;;;;;;764173;181;814046;-80
2022/06/24 13:35:34;;;;;;;6.53;2.83;;;;;;;;;;767994;181;632465;-74
2022/06/24 13:38:00;;;;;;;10.00;3.00;;;;;;;;;;736704;188;918712;-77
2022/06/24 13:40:26;;;;;;;5.47;2.90;;;;;;;;;;765738;180;633558;-75
2022/06/24 13:42:52;;;;;;;5.37;2.47;;;;;;;;;;768314;180;901958;-77
2022/06/24 13:45:18;;;;;;;5.33;2.97;;;;;;;;;;765252;180;919143;-77
2022/06/24 13:47:44;;;;;;;7.33;2.63;;;;;;;;;;769988;180;923096;-81
2022/06/24 13:50:09;;;;;;;4.07;2.97;;;;;;;;;;767755;180;913259;-78
2022/06/24 13:52:35;;;;;;;8.90;2.50;;;;;;;;;;737991;187;800474;-80
2022/06/24 13:55:01;;;;;;;8.53;2.40;;;;;;;;;;738409;185;628227;-82
2022/06/24 13:57:27;;;;;;;5.53;2.83;;;;;;;;;;740682;187;620894;-76
2022/06/24 13:59:53;;;;;;;4.53;2.80;;;;;;;;;;743790;186;624816;-79
2022/06/24 14:02:19;;;;;;;3.50;2.70;;;;;;;;;;768770;181;687164;-76
2022/06/24 14:04:45;;;;;;;8.10;2.90;;;;;;;;;;768500;180;635876;-77
2022/06/24 14:07:11;;;;;;;3.70;2.43;;;;;;;;;;772283;180;817065;-75
2022/06/24 14:09:36;;;;;;;4.43;2.43;;;;;;;;;;772158;181;919409;-76
2022/06/24 14:12:02;;;;;;;6.40;2.67;;;;;;;;;;767172;181;919104;-78
2022/06/24 14:14:28;;;;;;;7.70;2.43;;;;;;;;;;773794;180;635259;-82
2022/06/24 14:16:54;;;;;;;6.70;2.80;;;;;;;;;;767187;181;930076;-76
2022/06/24 14:19:20;;;;;;;3.90;2.47;;;;;;;;;;764180;180;911271;-78
2022/06/24 14:21:46;;;;;;;5.10;2.70;;;;;;;;;;772452;180;630782;-75
2022/06/24 14:26:43;;;;;;;5.60;2.60;;;;;;;;;;764992;180;818376;-77